Santa Rosa — A8ZS7 — position and weather

sailwx.info

Track history (hours):
 
Tides and Currents Weather Stations Pressure Air Temp Water Temp Dewpoint Dewpoint Depression Visibility Wind Speed Wind Dir Waves Ship Positions

Santa Rosa

Last reported at 2017-Mar-24 17:33 UTC. Time now 2017-Mar-24 21:49 UTC.
Position N 24°20' E 118°42'.

Length 300 m; draft 11 m.

Type: Cargo ship. MMSI: 636092266.

Date/timePositionNaut miles runAvg speedWind from/ knotsBaromVisibWave heightAir tempDewpointWater temp
2017-Mar-24 17:33N 24°20' E 118°42'2612.7
2017-Mar-24 15:32N 24°15' E 118°15'1313.6
2017-Mar-24 14:33N 24°25' E 118°05'5 4.7
2017-Mar-24 13:31N 24°27' E 118°00'0 0.0
2017-Mar-24 12:31N 24°27' E 118°00'0 0.0
2017-Mar-24 11:31N 24°27' E 118°00'0 0.0
2017-Mar-24 10:25N 24°27' E 118°00'0 0.0
2017-Mar-24 09:31N 24°27' E 118°00'0 0.0
2017-Mar-24 08:31N 24°27' E 118°00'0 0.0
2017-Mar-24 07:31N 24°27' E 118°00'0 0.0
2017-Mar-24 06:31N 24°27' E 118°00'0 0.0
2017-Mar-24 05:25N 24°27' E 118°00'0 0.0
2017-Mar-24 04:31N 24°27' E 118°00'0 0.0
2017-Mar-24 03:31N 24°27' E 118°00'0 0.0
2017-Mar-24 02:25N 24°27' E 118°00'0 0.0
2017-Mar-24 01:25N 24°27' E 118°00'0 0.0
2017-Mar-24 00:28N 24°27' E 118°00'0 0.0
2017-Mar-23 23:28N 24°27' E 118°00'0 0.0
2017-Mar-23 22:10N 24°27' E 118°00'0 0.0
2017-Mar-23 21:31N 24°27' E 118°00'0 0.0
2017-Mar-23 20:31N 24°27' E 118°00'2 1.9
2017-Mar-23 19:33N 24°26' E 118°02'9 8.7
2017-Mar-23 18:33N 24°21' E 118°10'4 4.0
2017-Mar-23 17:33N 24°19' E 118°14'0 0.1
2017-Mar-23 16:32N 24°19' E 118°14'0 0.0
2017-Mar-23 15:32N 24°19' E 118°14'0 0.0
2017-Mar-23 14:32N 24°19' E 118°14'0 0.0
2017-Mar-23 13:32N 24°19' E 118°14'2 1.2
2017-Mar-23 12:00N 24°18' E 118°12'2 0.7 070 / 151017.1 5.4 16.213.314.0
2017-Mar-23 09:29N 24°19' E 118°13'0 0.0
2017-Mar-23 08:14N 24°19' E 118°13'0 0.0
2017-Mar-23 06:32N 24°19' E 118°13'0 0.0
2017-Mar-23 05:32N 24°19' E 118°13'0 0.0
2017-Mar-23 04:31N 24°19' E 118°13'0 0.1
2017-Mar-23 03:29N 24°19' E 118°14'0 0.0
2017-Mar-23 02:32N 24°19' E 118°14'0 0.0
2017-Mar-23 01:32N 24°19' E 118°14'0 0.0
2017-Mar-23 00:32N 24°19' E 118°14'2 3.5
2017-Mar-23 00:00N 24°18' E 118°12'2 4.0 070 / 101016.2 0.1 16.513.013.0
2017-Mar-22 23:31N 24°19' E 118°14'0 0.0
2017-Mar-22 21:08N 24°19' E 118°13'0 0.0
2017-Mar-22 19:20N 24°19' E 118°13'0 0.0
2017-Mar-22 18:29N 24°19' E 118°13'0 0.1
2017-Mar-22 17:32N 24°19' E 118°14'0 0.1
2017-Mar-22 16:32N 24°19' E 118°13'0 0.0
2017-Mar-22 15:31N 24°19' E 118°13'0 0.1
2017-Mar-22 14:29N 24°19' E 118°14'0 0.0
2017-Mar-22 13:29N 24°19' E 118°14'0 0.1
2017-Mar-22 12:22N 24°19' E 118°13'0 0.0
2017-Mar-22 09:19N 24°19' E 118°13'0 0.0
2017-Mar-22 08:31N 24°19' E 118°13'0 0.0
2017-Mar-22 07:32N 24°19' E 118°13'0 0.0
2017-Mar-22 05:28N 24°19' E 118°14'0 0.1
2017-Mar-22 04:31N 24°19' E 118°13'0 0.0
2017-Mar-22 03:31N 24°19' E 118°13'0 0.1
2017-Mar-22 02:31N 24°19' E 118°14'0 0.0
2017-Mar-22 01:31N 24°19' E 118°14'0 0.0
2017-Mar-22 00:31N 24°19' E 118°14'0 0.1
2017-Mar-21 23:31N 24°19' E 118°13'0 0.1
2017-Mar-21 22:31N 24°19' E 118°14'0 0.1
2017-Mar-21 21:31N 24°19' E 118°13'0 0.0
2017-Mar-21 20:25N 24°19' E 118°13'0 0.0
2017-Mar-21 19:31N 24°19' E 118°13'0 0.0
2017-Mar-21 18:31N 24°19' E 118°13'0 0.0
2017-Mar-21 17:31N 24°19' E 118°13'0 0.1
2017-Mar-21 16:31N 24°19' E 118°14'0 0.0
2017-Mar-21 15:31N 24°19' E 118°14'0 0.1
2017-Mar-21 14:31N 24°19' E 118°13'0 0.1
2017-Mar-21 13:31N 24°19' E 118°14'0 0.0
2017-Mar-21 12:31N 24°19' E 118°14'0 0.1
2017-Mar-21 11:31N 24°19' E 118°13'0 0.0
2017-Mar-21 10:28N 24°19' E 118°13'0 0.0
2017-Mar-21 09:25N 24°19' E 118°13'0 0.0
2017-Mar-21 08:32N 24°19' E 118°13'0 0.0
2017-Mar-21 07:25N 24°19' E 118°13'0 0.0
2017-Mar-21 06:31N 24°19' E 118°13'0 0.0
2017-Mar-21 05:31N 24°19' E 118°13'0 0.0
2017-Mar-21 04:31N 24°19' E 118°13'0 0.0
2017-Mar-21 03:19N 24°19' E 118°13'0 0.0
2017-Mar-21 02:28N 24°19' E 118°13'0 0.0
2017-Mar-21 01:31N 24°19' E 118°13'0 0.1
2017-Mar-21 00:31N 24°19' E 118°14'2 3.5
2017-Mar-21 00:00N 24°18' E 118°12'2 4.0 1017.9 0.1 18.212.213.0
2017-Mar-20 23:31N 24°19' E 118°14'0 0.0
2017-Mar-20 22:31N 24°19' E 118°14'0 0.0
2017-Mar-20 21:31N 24°19' E 118°14'0 0.1
2017-Mar-20 20:31N 24°19' E 118°14'0 0.1
2017-Mar-20 19:31N 24°19' E 118°14'0 0.1
2017-Mar-20 18:28N 24°19' E 118°14'0 0.1
2017-Mar-20 17:32N 24°19' E 118°14'0 0.1
2017-Mar-20 16:31N 24°19' E 118°14'0 0.0
2017-Mar-20 15:32N 24°19' E 118°14'0 0.0
2017-Mar-20 14:31N 24°19' E 118°14'0 0.1
2017-Mar-20 13:31N 24°19' E 118°14'0 0.0
2017-Mar-20 12:31N 24°19' E 118°14'0 0.1
2017-Mar-20 11:28N 24°19' E 118°14'0 0.2
2017-Mar-20 10:28N 24°19' E 118°13'0 0.1
2017-Mar-20 09:25N 24°19' E 118°14'0 0.0
2017-Mar-20 08:31N 24°19' E 118°14'0 0.0
2017-Mar-20 07:28N 24°19' E 118°14'0 0.0
2017-Mar-20 06:31N 24°19' E 118°14'0 0.0
2017-Mar-20 05:31N 24°19' E 118°14'0 0.0
2017-Mar-20 04:31N 24°19' E 118°14'0 0.1
2017-Mar-20 03:25N 24°19' E 118°13'0 0.0
2017-Mar-20 02:32N 24°19' E 118°13'0 0.1
2017-Mar-20 01:31N 24°19' E 118°14'0 0.1
2017-Mar-20 00:31N 24°19' E 118°14'0 0.1
2017-Mar-19 23:31N 24°19' E 118°14'0 0.0
2017-Mar-19 22:28N 24°19' E 118°14'0 0.0
2017-Mar-19 21:31N 24°19' E 118°14'0 0.1
2017-Mar-19 19:31N 24°19' E 118°13'0 0.0
2017-Mar-19 16:25N 24°19' E 118°13'0 0.2
2017-Mar-19 15:16N 24°19' E 118°14'0 0.0
2017-Mar-19 14:31N 24°19' E 118°14'0 0.1
2017-Mar-19 13:31N 24°19' E 118°14'0 0.0
2017-Mar-19 12:31N 24°19' E 118°14'0 0.1
2017-Mar-19 11:32N 24°19' E 118°13'0 0.0
2017-Mar-19 10:28N 24°19' E 118°13'0 0.0
2017-Mar-19 09:31N 24°19' E 118°13'0 0.0
2017-Mar-19 08:31N 24°19' E 118°13'0 0.0
2017-Mar-19 07:13N 24°19' E 118°13'0 0.0
2017-Mar-19 06:19N 24°19' E 118°13'0 0.0
2017-Mar-19 05:25N 24°19' E 118°13'0 0.0
2017-Mar-19 04:32N 24°19' E 118°13'0 0.0
2017-Mar-19 03:31N 24°19' E 118°13'0 0.1
2017-Mar-19 02:31N 24°19' E 118°13'0 0.0
2017-Mar-19 01:31N 24°19' E 118°13'0 0.1
2017-Mar-19 00:31N 24°19' E 118°14'2 3.5
2017-Mar-19 00:00N 24°18' E 118°12'2 3.9 090 / 151020.5 2.2 16.313.013.0
2017-Mar-18 23:31N 24°19' E 118°14'0 0.1
2017-Mar-18 22:31N 24°19' E 118°14'0 0.1
2017-Mar-18 21:31N 24°19' E 118°14'0 0.0
2017-Mar-18 20:31N 24°19' E 118°14'0 0.1
2017-Mar-18 19:25N 24°19' E 118°13'0 0.0
2017-Mar-18 18:25N 24°19' E 118°13'0 0.0
2017-Mar-18 17:31N 24°19' E 118°13'0 0.1
2017-Mar-18 16:16N 24°19' E 118°14'0 0.2
2017-Mar-18 15:31N 24°19' E 118°14'0 0.2
2017-Mar-18 14:31N 24°19' E 118°14'0 0.1
2017-Mar-18 13:31N 24°19' E 118°14'0 0.0
2017-Mar-18 12:31N 24°19' E 118°14'0 0.0
2017-Mar-18 11:31N 24°19' E 118°14'0 0.0
2017-Mar-18 10:31N 24°19' E 118°14'0 0.1
2017-Mar-18 09:31N 24°19' E 118°14'0 0.1
2017-Mar-18 08:31N 24°19' E 118°13'0 0.1
2017-Mar-18 06:31N 24°19' E 118°13'0 0.1
2017-Mar-18 05:19N 24°19' E 118°14'0 0.0
2017-Mar-18 04:19N 24°19' E 118°14'0 0.1
2017-Mar-18 03:31N 24°19' E 118°14'0 0.2
2017-Mar-18 02:31N 24°19' E 118°14'0 0.1
2017-Mar-18 01:31N 24°19' E 118°14'0 0.1
2017-Mar-18 00:31N 24°19' E 118°14'0 0.0
2017-Mar-17 23:31N 24°19' E 118°14'0 0.0
2017-Mar-17 22:31N 24°19' E 118°14'0 0.1
2017-Mar-17 21:31N 24°19' E 118°14'0 0.0
2017-Mar-17 20:31N 24°19' E 118°14'0 0.1
2017-Mar-17 19:25N 24°19' E 118°13'0 0.0
2017-Mar-17 18:25N 24°19' E 118°13'0 0.0
2017-Mar-17 17:16N 24°19' E 118°13'0 0.0
2017-Mar-17 15:28N 24°19' E 118°13'0 0.2
2017-Mar-17 14:31N 24°19' E 118°14'0 0.1
2017-Mar-17 13:31N 24°19' E 118°14'0 0.1
2017-Mar-17 12:28N 24°19' E 118°14'0 0.0
2017-Mar-17 11:31N 24°19' E 118°14'0 0.0
2017-Mar-17 10:31N 24°19' E 118°14'0 0.0
2017-Mar-17 09:31N 24°19' E 118°14'0 0.0
2017-Mar-17 08:31N 24°19' E 118°14'0 0.1
2017-Mar-17 07:31N 24°19' E 118°14'0 0.1
2017-Mar-17 06:28N 24°19' E 118°13'0 0.0
2017-Mar-17 04:04N 24°19' E 118°13'0 0.0
2017-Mar-17 03:28N 24°19' E 118°13'0 0.0
2017-Mar-17 02:28N 24°19' E 118°13'0 0.1
2017-Mar-17 01:13N 24°19' E 118°14'0 0.0
2017-Mar-17 00:28N 24°19' E 118°14'0 0.0
2017-Mar-16 23:28N 24°19' E 118°14'0 0.0
2017-Mar-16 22:31N 24°19' E 118°14'0 0.0
2017-Mar-16 21:28N 24°19' E 118°14'0 0.0
2017-Mar-16 20:28N 24°19' E 118°14'0 0.1
2017-Mar-16 19:31N 24°19' E 118°14'0 0.0
2017-Mar-16 18:31N 24°19' E 118°14'0 0.1
2017-Mar-16 17:31N 24°19' E 118°13'0 0.0
2017-Mar-16 16:22N 24°19' E 118°13'0 0.0
2017-Mar-16 15:28N 24°19' E 118°13'0 0.0
2017-Mar-16 14:31N 24°19' E 118°13'0 0.1
2017-Mar-16 13:31N 24°19' E 118°14'0 0.1
2017-Mar-16 12:31N 24°19' E 118°14'0 0.1
2017-Mar-16 11:31N 24°19' E 118°14'0 0.0
2017-Mar-16 10:31N 24°19' E 118°14'0 0.1
2017-Mar-16 09:31N 24°19' E 118°14'0 0.0
2017-Mar-16 08:28N 24°19' E 118°14'0 0.0
2017-Mar-16 07:31N 24°19' E 118°14'0 0.0
2017-Mar-16 06:31N 24°19' E 118°14'0 0.1
2017-Mar-16 05:31N 24°19' E 118°14'0 0.1
2017-Mar-16 04:28N 24°19' E 118°13'0 0.0
2017-Mar-16 03:16N 24°19' E 118°13'0 0.0
2017-Mar-16 02:31N 24°19' E 118°13'0 0.2
2017-Mar-16 01:31N 24°19' E 118°14'0 0.1
2017-Mar-16 00:31N 24°19' E 118°14'0 0.0
2017-Mar-15 23:31N 24°19' E 118°14'0 0.1
2017-Mar-15 22:31N 24°19' E 118°14'0 0.1
2017-Mar-15 21:31N 24°19' E 118°14'0 0.0
2017-Mar-15 20:31N 24°19' E 118°14'0 0.1
2017-Mar-15 19:31N 24°19' E 118°14'0 0.0
2017-Mar-15 18:31N 24°19' E 118°14'0 0.1
2017-Mar-15 17:28N 24°19' E 118°13'0 0.0
2017-Mar-15 16:16N 24°19' E 118°13'0 0.0
2017-Mar-15 15:28N 24°19' E 118°13'0 0.0
2017-Mar-15 14:04N 24°19' E 118°13'0 0.1
2017-Mar-15 13:31N 24°19' E 118°13'0 0.0
2017-Mar-15 12:31N 24°19' E 118°13'0 0.1
2017-Mar-15 11:31N 24°19' E 118°14'0 0.0
2017-Mar-15 10:31N 24°19' E 118°14'0 0.0
2017-Mar-15 09:31N 24°19' E 118°14'0 0.0
2017-Mar-15 08:31N 24°19' E 118°14'0 0.0
2017-Mar-15 07:31N 24°19' E 118°14'0 0.0
2017-Mar-15 06:31N 24°19' E 118°14'0 0.1
2017-Mar-15 05:28N 24°19' E 118°13'0 0.0
2017-Mar-15 04:31N 24°19' E 118°13'0 0.0
2017-Mar-15 03:22N 24°19' E 118°13'0 0.0
2017-Mar-15 02:31N 24°19' E 118°13'0 0.0
2017-Mar-15 01:31N 24°19' E 118°13'0 0.0
2017-Mar-15 00:28N 24°19' E 118°13'0 0.1
2017-Mar-14 23:31N 24°19' E 118°14'0 0.0
2017-Mar-14 22:31N 24°19' E 118°14'0 0.1
2017-Mar-14 21:31N 24°19' E 118°14'0 0.0
2017-Mar-14 20:28N 24°19' E 118°14'0 0.1
2017-Mar-14 19:22N 24°19' E 118°14'0 0.0
2017-Mar-14 18:31N 24°19' E 118°14'  
Track history (hours):
 
Tides and Currents Weather Stations Pressure Air Temp Water Temp Dewpoint Dewpoint Depression Visibility Wind Speed Wind Dir Waves Ship Positions

Santa Rosa

Last reported at 2017-Mar-24 17:33 UTC. Time now 2017-Mar-24 21:49 UTC.
Position N 24°20' E 118°42'.

Length 300 m; draft 11 m.

Type: Cargo ship. MMSI: 636092266.

Date/timePositionNaut miles runAvg speedWind from/ knotsBaromVisibWave heightAir tempDewpointWater temp
2017-Mar-24 17:33N 24°20' E 118°42'2612.7
2017-Mar-24 15:32N 24°15' E 118°15'1313.6
2017-Mar-24 14:33N 24°25' E 118°05'5 4.7
2017-Mar-24 13:31N 24°27' E 118°00'0 0.0
2017-Mar-24 12:31N 24°27' E 118°00'0 0.0
2017-Mar-24 11:31N 24°27' E 118°00'0 0.0
2017-Mar-24 10:25N 24°27' E 118°00'0 0.0
2017-Mar-24 09:31N 24°27' E 118°00'0 0.0
2017-Mar-24 08:31N 24°27' E 118°00'0 0.0
2017-Mar-24 07:31N 24°27' E 118°00'0 0.0
2017-Mar-24 06:31N 24°27' E 118°00'0 0.0
2017-Mar-24 05:25N 24°27' E 118°00'0 0.0
2017-Mar-24 04:31N 24°27' E 118°00'0 0.0
2017-Mar-24 03:31N 24°27' E 118°00'0 0.0
2017-Mar-24 02:25N 24°27' E 118°00'0 0.0
2017-Mar-24 01:25N 24°27' E 118°00'0 0.0
2017-Mar-24 00:28N 24°27' E 118°00'0 0.0
2017-Mar-23 23:28N 24°27' E 118°00'0 0.0
2017-Mar-23 22:10N 24°27' E 118°00'0 0.0
2017-Mar-23 21:31N 24°27' E 118°00'0 0.0
2017-Mar-23 20:31N 24°27' E 118°00'2 1.9
2017-Mar-23 19:33N 24°26' E 118°02'9 8.7
2017-Mar-23 18:33N 24°21' E 118°10'4 4.0
2017-Mar-23 17:33N 24°19' E 118°14'0 0.1
2017-Mar-23 16:32N 24°19' E 118°14'0 0.0
2017-Mar-23 15:32N 24°19' E 118°14'0 0.0
2017-Mar-23 14:32N 24°19' E 118°14'0 0.0
2017-Mar-23 13:32N 24°19' E 118°14'2 1.2
2017-Mar-23 12:00N 24°18' E 118°12'2 0.7 070 / 151017.1 5.4 16.213.314.0
2017-Mar-23 09:29N 24°19' E 118°13'0 0.0
2017-Mar-23 08:14N 24°19' E 118°13'0 0.0
2017-Mar-23 06:32N 24°19' E 118°13'0 0.0
2017-Mar-23 05:32N 24°19' E 118°13'0 0.0
2017-Mar-23 04:31N 24°19' E 118°13'0 0.1
2017-Mar-23 03:29N 24°19' E 118°14'0 0.0
2017-Mar-23 02:32N 24°19' E 118°14'0 0.0
2017-Mar-23 01:32N 24°19' E 118°14'0 0.0
2017-Mar-23 00:32N 24°19' E 118°14'2 3.5
2017-Mar-23 00:00N 24°18' E 118°12'2 4.0 070 / 101016.2 0.1 16.513.013.0
2017-Mar-22 23:31N 24°19' E 118°14'0 0.0
2017-Mar-22 21:08N 24°19' E 118°13'0 0.0
2017-Mar-22 19:20N 24°19' E 118°13'0 0.0
2017-Mar-22 18:29N 24°19' E 118°13'0 0.1
2017-Mar-22 17:32N 24°19' E 118°14'0 0.1
2017-Mar-22 16:32N 24°19' E 118°13'0 0.0
2017-Mar-22 15:31N 24°19' E 118°13'0 0.1
2017-Mar-22 14:29N 24°19' E 118°14'0 0.0
2017-Mar-22 13:29N 24°19' E 118°14'0 0.1
2017-Mar-22 12:22N 24°19' E 118°13'0 0.0
2017-Mar-22 09:19N 24°19' E 118°13'0 0.0
2017-Mar-22 08:31N 24°19' E 118°13'0 0.0
2017-Mar-22 07:32N 24°19' E 118°13'0 0.0
2017-Mar-22 05:28N 24°19' E 118°14'0 0.1
2017-Mar-22 04:31N 24°19' E 118°13'0 0.0
2017-Mar-22 03:31N 24°19' E 118°13'0 0.1
2017-Mar-22 02:31N 24°19' E 118°14'0 0.0
2017-Mar-22 01:31N 24°19' E 118°14'0 0.0
2017-Mar-22 00:31N 24°19' E 118°14'0 0.1
2017-Mar-21 23:31N 24°19' E 118°13'0 0.1
2017-Mar-21 22:31N 24°19' E 118°14'0 0.1
2017-Mar-21 21:31N 24°19' E 118°13'0 0.0
2017-Mar-21 20:25N 24°19' E 118°13'0 0.0
2017-Mar-21 19:31N 24°19' E 118°13'0 0.0
2017-Mar-21 18:31N 24°19' E 118°13'0 0.0
2017-Mar-21 17:31N 24°19' E 118°13'0 0.1
2017-Mar-21 16:31N 24°19' E 118°14'0 0.0
2017-Mar-21 15:31N 24°19' E 118°14'0 0.1
2017-Mar-21 14:31N 24°19' E 118°13'0 0.1
2017-Mar-21 13:31N 24°19' E 118°14'0 0.0
2017-Mar-21 12:31N 24°19' E 118°14'0 0.1
2017-Mar-21 11:31N 24°19' E 118°13'0 0.0
2017-Mar-21 10:28N 24°19' E 118°13'0 0.0
2017-Mar-21 09:25N 24°19' E 118°13'0 0.0
2017-Mar-21 08:32N 24°19' E 118°13'0 0.0
2017-Mar-21 07:25N 24°19' E 118°13'0 0.0
2017-Mar-21 06:31N 24°19' E 118°13'0 0.0
2017-Mar-21 05:31N 24°19' E 118°13'0 0.0
2017-Mar-21 04:31N 24°19' E 118°13'0 0.0
2017-Mar-21 03:19N 24°19' E 118°13'0 0.0
2017-Mar-21 02:28N 24°19' E 118°13'0 0.0
2017-Mar-21 01:31N 24°19' E 118°13'0 0.1
2017-Mar-21 00:31N 24°19' E 118°14'2 3.5
2017-Mar-21 00:00N 24°18' E 118°12'2 4.0 1017.9 0.1 18.212.213.0
2017-Mar-20 23:31N 24°19' E 118°14'0 0.0
2017-Mar-20 22:31N 24°19' E 118°14'0 0.0
2017-Mar-20 21:31N 24°19' E 118°14'0 0.1
2017-Mar-20 20:31N 24°19' E 118°14'0 0.1
2017-Mar-20 19:31N 24°19' E 118°14'0 0.1
2017-Mar-20 18:28N 24°19' E 118°14'0 0.1
2017-Mar-20 17:32N 24°19' E 118°14'0 0.1
2017-Mar-20 16:31N 24°19' E 118°14'0 0.0
2017-Mar-20 15:32N 24°19' E 118°14'0 0.0
2017-Mar-20 14:31N 24°19' E 118°14'0 0.1
2017-Mar-20 13:31N 24°19' E 118°14'0 0.0
2017-Mar-20 12:31N 24°19' E 118°14'0 0.1
2017-Mar-20 11:28N 24°19' E 118°14'0 0.2
2017-Mar-20 10:28N 24°19' E 118°13'0 0.1
2017-Mar-20 09:25N 24°19' E 118°14'0 0.0
2017-Mar-20 08:31N 24°19' E 118°14'0 0.0
2017-Mar-20 07:28N 24°19' E 118°14'0 0.0
2017-Mar-20 06:31N 24°19' E 118°14'0 0.0
2017-Mar-20 05:31N 24°19' E 118°14'0 0.0
2017-Mar-20 04:31N 24°19' E 118°14'0 0.1
2017-Mar-20 03:25N 24°19' E 118°13'0 0.0
2017-Mar-20 02:32N 24°19' E 118°13'0 0.1
2017-Mar-20 01:31N 24°19' E 118°14'0 0.1
2017-Mar-20 00:31N 24°19' E 118°14'0 0.1
2017-Mar-19 23:31N 24°19' E 118°14'0 0.0
2017-Mar-19 22:28N 24°19' E 118°14'0 0.0
2017-Mar-19 21:31N 24°19' E 118°14'0 0.1
2017-Mar-19 19:31N 24°19' E 118°13'0 0.0
2017-Mar-19 16:25N 24°19' E 118°13'0 0.2
2017-Mar-19 15:16N 24°19' E 118°14'0 0.0
2017-Mar-19 14:31N 24°19' E 118°14'0 0.1
2017-Mar-19 13:31N 24°19' E 118°14'0 0.0
2017-Mar-19 12:31N 24°19' E 118°14'0 0.1
2017-Mar-19 11:32N 24°19' E 118°13'0 0.0
2017-Mar-19 10:28N 24°19' E 118°13'0 0.0
2017-Mar-19 09:31N 24°19' E 118°13'0 0.0
2017-Mar-19 08:31N 24°19' E 118°13'0 0.0
2017-Mar-19 07:13N 24°19' E 118°13'0 0.0
2017-Mar-19 06:19N 24°19' E 118°13'0 0.0
2017-Mar-19 05:25N 24°19' E 118°13'0 0.0
2017-Mar-19 04:32N 24°19' E 118°13'0 0.0
2017-Mar-19 03:31N 24°19' E 118°13'0 0.1
2017-Mar-19 02:31N 24°19' E 118°13'0 0.0
2017-Mar-19 01:31N 24°19' E 118°13'0 0.1
2017-Mar-19 00:31N 24°19' E 118°14'2 3.5
2017-Mar-19 00:00N 24°18' E 118°12'2 3.9 090 / 151020.5 2.2 16.313.013.0
2017-Mar-18 23:31N 24°19' E 118°14'0 0.1
2017-Mar-18 22:31N 24°19' E 118°14'0 0.1
2017-Mar-18 21:31N 24°19' E 118°14'0 0.0
2017-Mar-18 20:31N 24°19' E 118°14'0 0.1
2017-Mar-18 19:25N 24°19' E 118°13'0 0.0
2017-Mar-18 18:25N 24°19' E 118°13'0 0.0
2017-Mar-18 17:31N 24°19' E 118°13'0 0.1
2017-Mar-18 16:16N 24°19' E 118°14'0 0.2
2017-Mar-18 15:31N 24°19' E 118°14'0 0.2
2017-Mar-18 14:31N 24°19' E 118°14'0 0.1
2017-Mar-18 13:31N 24°19' E 118°14'0 0.0
2017-Mar-18 12:31N 24°19' E 118°14'0 0.0
2017-Mar-18 11:31N 24°19' E 118°14'0 0.0
2017-Mar-18 10:31N 24°19' E 118°14'0 0.1
2017-Mar-18 09:31N 24°19' E 118°14'0 0.1
2017-Mar-18 08:31N 24°19' E 118°13'0 0.1
2017-Mar-18 06:31N 24°19' E 118°13'0 0.1
2017-Mar-18 05:19N 24°19' E 118°14'0 0.0
2017-Mar-18 04:19N 24°19' E 118°14'0 0.1
2017-Mar-18 03:31N 24°19' E 118°14'0 0.2
2017-Mar-18 02:31N 24°19' E 118°14'0 0.1
2017-Mar-18 01:31N 24°19' E 118°14'0 0.1
2017-Mar-18 00:31N 24°19' E 118°14'0 0.0
2017-Mar-17 23:31N 24°19' E 118°14'0 0.0
2017-Mar-17 22:31N 24°19' E 118°14'0 0.1
2017-Mar-17 21:31N 24°19' E 118°14'0 0.0
2017-Mar-17 20:31N 24°19' E 118°14'0 0.1
2017-Mar-17 19:25N 24°19' E 118°13'0 0.0
2017-Mar-17 18:25N 24°19' E 118°13'0 0.0
2017-Mar-17 17:16N 24°19' E 118°13'0 0.0
2017-Mar-17 15:28N 24°19' E 118°13'0 0.2
2017-Mar-17 14:31N 24°19' E 118°14'0 0.1
2017-Mar-17 13:31N 24°19' E 118°14'0 0.1
2017-Mar-17 12:28N 24°19' E 118°14'0 0.0
2017-Mar-17 11:31N 24°19' E 118°14'0 0.0
2017-Mar-17 10:31N 24°19' E 118°14'0 0.0
2017-Mar-17 09:31N 24°19' E 118°14'0 0.0
2017-Mar-17 08:31N 24°19' E 118°14'0 0.1
2017-Mar-17 07:31N 24°19' E 118°14'0 0.1
2017-Mar-17 06:28N 24°19' E 118°13'0 0.0
2017-Mar-17 04:04N 24°19' E 118°13'0 0.0
2017-Mar-17 03:28N 24°19' E 118°13'0 0.0
2017-Mar-17 02:28N 24°19' E 118°13'0 0.1
2017-Mar-17 01:13N 24°19' E 118°14'0 0.0
2017-Mar-17 00:28N 24°19' E 118°14'0 0.0
2017-Mar-16 23:28N 24°19' E 118°14'0 0.0
2017-Mar-16 22:31N 24°19' E 118°14'0 0.0
2017-Mar-16 21:28N 24°19' E 118°14'0 0.0
2017-Mar-16 20:28N 24°19' E 118°14'0 0.1
2017-Mar-16 19:31N 24°19' E 118°14'0 0.0
2017-Mar-16 18:31N 24°19' E 118°14'0 0.1
2017-Mar-16 17:31N 24°19' E 118°13'0 0.0
2017-Mar-16 16:22N 24°19' E 118°13'0 0.0
2017-Mar-16 15:28N 24°19' E 118°13'0 0.0
2017-Mar-16 14:31N 24°19' E 118°13'0 0.1
2017-Mar-16 13:31N 24°19' E 118°14'0 0.1
2017-Mar-16 12:31N 24°19' E 118°14'0 0.1
2017-Mar-16 11:31N 24°19' E 118°14'0 0.0
2017-Mar-16 10:31N 24°19' E 118°14'0 0.1
2017-Mar-16 09:31N 24°19' E 118°14'0 0.0
2017-Mar-16 08:28N 24°19' E 118°14'0 0.0
2017-Mar-16 07:31N 24°19' E 118°14'0 0.0
2017-Mar-16 06:31N 24°19' E 118°14'0 0.1
2017-Mar-16 05:31N 24°19' E 118°14'0 0.1
2017-Mar-16 04:28N 24°19' E 118°13'0 0.0
2017-Mar-16 03:16N 24°19' E 118°13'0 0.0
2017-Mar-16 02:31N 24°19' E 118°13'0 0.2
2017-Mar-16 01:31N 24°19' E 118°14'0 0.1
2017-Mar-16 00:31N 24°19' E 118°14'0 0.0
2017-Mar-15 23:31N 24°19' E 118°14'0 0.1
2017-Mar-15 22:31N 24°19' E 118°14'0 0.1
2017-Mar-15 21:31N 24°19' E 118°14'0 0.0
2017-Mar-15 20:31N 24°19' E 118°14'0 0.1
2017-Mar-15 19:31N 24°19' E 118°14'0 0.0
2017-Mar-15 18:31N 24°19' E 118°14'0 0.1
2017-Mar-15 17:28N 24°19' E 118°13'0 0.0
2017-Mar-15 16:16N 24°19' E 118°13'0 0.0
2017-Mar-15 15:28N 24°19' E 118°13'0 0.0
2017-Mar-15 14:04N 24°19' E 118°13'0 0.1
2017-Mar-15 13:31N 24°19' E 118°13'0 0.0
2017-Mar-15 12:31N 24°19' E 118°13'0 0.1
2017-Mar-15 11:31N 24°19' E 118°14'0 0.0
2017-Mar-15 10:31N 24°19' E 118°14'0 0.0
2017-Mar-15 09:31N 24°19' E 118°14'0 0.0
2017-Mar-15 08:31N 24°19' E 118°14'0 0.0
2017-Mar-15 07:31N 24°19' E 118°14'0 0.0
2017-Mar-15 06:31N 24°19' E 118°14'0 0.1
2017-Mar-15 05:28N 24°19' E 118°13'0 0.0
2017-Mar-15 04:31N 24°19' E 118°13'0 0.0
2017-Mar-15 03:22N 24°19' E 118°13'0 0.0
2017-Mar-15 02:31N 24°19' E 118°13'0 0.0
2017-Mar-15 01:31N 24°19' E 118°13'0 0.0
2017-Mar-15 00:28N 24°19' E 118°13'0 0.1
2017-Mar-14 23:31N 24°19' E 118°14'0 0.0
2017-Mar-14 22:31N 24°19' E 118°14'0 0.1
2017-Mar-14 21:31N 24°19' E 118°14'0 0.0
2017-Mar-14 20:28N 24°19' E 118°14'0 0.1
2017-Mar-14 19:22N 24°19' E 118°14'0 0.0
2017-Mar-14 18:31N 24°19' E 118°14'  

Dump ship's entire track history